Terminal Aerodrome Forecast
Issued by NWS

Current Version | Previous Version | Graphics & Text | Print | Product List | Glossary On
Versions: 1 2 3 4 5 6 7 8 9 10 11 12 13 14 15 16 17 18 19 20 21 22
000
FTUS41 KPBZ 260500
TAFMGW
TAF
KMGW 260520Z 2606/2706 24006KT P6SM BKN035
     FM261500 VRB04KT 3SM -SHRA BR OVC010
     FM262000 32008KT 2SM -SHRA OVC008
     FM270400 33008KT P6SM BKN015=

USA.gov is the U.S. government's official web portal to all federal, state and local government web resources and services.